sensor_id;sensor_type;location;lat;lon;timestamp;pressure;altitude;pressure_sealevel;temperature;humidity
29385;BME280;16367;48.736;9.218;2023-06-14T00:01:00;-23694.97;;;16.71;47.50
29385;BME280;16367;48.736;9.218;2023-06-14T00:03:04;-23692.00;;;16.61;47.12
29385;BME280;16367;48.736;9.218;2023-06-14T00:05:08;-23686.00;;;16.42;48.75
29385;BME280;16367;48.736;9.218;2023-06-14T00:07:10;-23681.91;;;16.29;49.20
29385;BME280;16367;48.736;9.218;2023-06-14T00:09:15;-23682.69;;;16.31;49.22
29385;BME280;16367;48.736;9.218;2023-06-14T00:11:19;-23683.78;;;16.35;49.51
29385;BME280;16367;48.736;9.218;2023-06-14T00:13:22;-23685.38;;;16.40;49.71
29385;BME280;16367;48.736;9.218;2023-06-14T00:15:26;-23686.31;;;16.43;49.99
29385;BME280;16367;48.736;9.218;2023-06-14T00:17:29;-23683.16;;;16.33;50.04
29385;BME280;16367;48.736;9.218;2023-06-14T00:19:33;-23680.31;;;16.24;49.80
29385;BME280;16367;48.736;9.218;2023-06-14T00:21:37;-23675.59;;;16.09;50.29
29385;BME280;16367;48.736;9.218;2023-06-14T00:23:40;-23674.97;;;16.07;51.18
29385;BME280;16367;48.736;9.218;2023-06-14T00:25:43;-23679.38;;;16.21;50.46
29385;BME280;16367;48.736;9.218;2023-06-14T00:27:46;-23675.75;;;16.09;50.71
29385;BME280;16367;48.736;9.218;2023-06-14T00:29:49;-23679.06;;;16.20;50.97
29385;BME280;16367;48.736;9.218;2023-06-14T00:31:53;-23677.81;;;16.16;51.37
29385;BME280;16367;48.736;9.218;2023-06-14T00:33:56;-23674.03;;;16.04;51.82
29385;BME280;16367;48.736;9.218;2023-06-14T00:35:59;-23676.38;;;16.11;51.67
29385;BME280;16367;48.736;9.218;2023-06-14T00:38:01;-23669.28;;;15.89;52.61
29385;BME280;16367;48.736;9.218;2023-06-14T00:40:05;-23669.63;;;15.90;52.77
29385;BME280;16367;48.736;9.218;2023-06-14T00:42:08;-23665.03;;;15.75;52.92
29385;BME280;16367;48.736;9.218;2023-06-14T00:44:12;-23661.72;;;15.64;54.04
29385;BME280;16367;48.736;9.218;2023-06-14T00:46:16;-23663.31;;;15.70;54.13
29385;BME280;16367;48.736;9.218;2023-06-14T00:48:22;-23659.38;;;15.57;54.15
29385;BME280;16367;48.736;9.218;2023-06-14T00:50:25;-23663.78;;;15.71;53.16
29385;BME280;16367;48.736;9.218;2023-06-14T00:52:28;-23661.41;;;15.63;54.63
29385;BME280;16367;48.736;9.218;2023-06-14T00:54:31;-23660.78;;;15.61;53.48
29385;BME280;16367;48.736;9.218;2023-06-14T00:56:35;-23657.00;;;15.49;53.91
29385;BME280;16367;48.736;9.218;2023-06-14T00:58:39;-23658.56;;;15.54;54.21
29385;BME280;16367;48.736;9.218;2023-06-14T01:00:41;-23654.63;;;15.42;54.20
29385;BME280;16367;48.736;9.218;2023-06-14T01:02:45;-23652.59;;;15.35;54.57
29385;BME280;16367;48.736;9.218;2023-06-14T01:04:51;-23650.69;;;15.29;54.93
29385;BME280;16367;48.736;9.218;2023-06-14T01:07:03;-23646.44;;;15.16;55.98
29385;BME280;16367;48.736;9.218;2023-06-14T01:09:38;-23648.47;;;15.22;54.94
29385;BME280;16367;48.736;9.218;2023-06-14T01:11:50;-23648.47;;;15.22;54.79
29385;BME280;16367;48.736;9.218;2023-06-14T01:13:55;-23647.69;;;15.20;55.15
29385;BME280;16367;48.736;9.218;2023-06-14T01:15:58;-23652.91;;;15.36;53.37
29385;BME280;16367;48.736;9.218;2023-06-14T01:18:02;-23657.31;;;15.50;51.70
29385;BME280;16367;48.736;9.218;2023-06-14T01:20:08;-23663.63;;;15.71;50.59
29385;BME280;16367;48.736;9.218;2023-06-14T01:22:12;-23668.34;;;15.86;49.76
29385;BME280;16367;48.736;9.218;2023-06-14T01:24:16;-23664.88;;;15.75;51.08
29385;BME280;16367;48.736;9.218;2023-06-14T01:26:22;-23659.38;;;15.57;52.53
29385;BME280;16367;48.736;9.218;2023-06-14T01:28:24;-23657.31;;;15.50;52.89
29385;BME280;16367;48.736;9.218;2023-06-14T01:30:28;-23657.47;;;15.51;53.13
29385;BME280;16367;48.736;9.218;2023-06-14T01:32:32;-23655.91;;;15.46;53.17
29385;BME280;16367;48.736;9.218;2023-06-14T01:34:34;-23653.84;;;15.39;53.77
29385;BME280;16367;48.736;9.218;2023-06-14T01:36:39;-23654.31;;;15.41;53.76
29385;BME280;16367;48.736;9.218;2023-06-14T01:38:44;-23651.00;;;15.30;53.88
29385;BME280;16367;48.736;9.218;2023-06-14T01:40:49;-23647.69;;;15.20;54.98
29385;BME280;16367;48.736;9.218;2023-06-14T01:42:54;-23651.63;;;15.32;53.84
29385;BME280;16367;48.736;9.218;2023-06-14T01:44:57;-23648.47;;;15.22;54.81
29385;BME280;16367;48.736;9.218;2023-06-14T01:47:00;-23646.59;;;15.16;54.58
29385;BME280;16367;48.736;9.218;2023-06-14T01:49:03;-23643.75;;;15.07;54.93
29385;BME280;16367;48.736;9.218;2023-06-14T01:51:05;-23640.91;;;14.98;55.45
29385;BME280;16367;48.736;9.218;2023-06-14T01:53:09;-23636.97;;;14.85;56.14
29385;BME280;16367;48.736;9.218;2023-06-14T01:55:12;-23635.88;;;14.82;56.39
29385;BME280;16367;48.736;9.218;2023-06-14T01:57:17;-23636.19;;;14.83;56.47
29385;BME280;16367;48.736;9.218;2023-06-14T01:59:19;-23638.88;;;14.91;56.16
29385;BME280;16367;48.736;9.218;2023-06-14T02:01:22;-23640.91;;;14.98;55.70
29385;BME280;16367;48.736;9.218;2023-06-14T02:03:25;-23641.84;;;15.01;55.63
29385;BME280;16367;48.736;9.218;2023-06-14T02:05:28;-23642.31;;;15.03;54.93
29385;BME280;16367;48.736;9.218;2023-06-14T02:07:32;-23645.31;;;15.12;54.50
29385;BME280;16367;48.736;9.218;2023-06-14T02:09:35;-23642.47;;;15.03;55.60
29385;BME280;16367;48.736;9.218;2023-06-14T02:11:37;-23643.75;;;15.07;55.34
29385;BME280;16367;48.736;9.218;2023-06-14T02:13:41;-23644.06;;;15.08;55.42
29385;BME280;16367;48.736;9.218;2023-06-14T02:15:44;-23640.44;;;14.97;55.59
29385;BME280;16367;48.736;9.218;2023-06-14T02:17:48;-23642.81;;;15.04;54.60
29385;BME280;16367;48.736;9.218;2023-06-14T02:19:52;-23638.69;;;14.91;55.34
29385;BME280;16367;48.736;9.218;2023-06-14T02:21:55;-23637.59;;;14.87;55.55
29385;BME280;16367;48.736;9.218;2023-06-14T02:23:57;-23637.13;;;14.86;54.81
29385;BME280;16367;48.736;9.218;2023-06-14T02:26:00;-23634.91;;;14.79;56.01
29385;BME280;16367;48.736;9.218;2023-06-14T02:28:04;-23636.97;;;14.85;55.71
29385;BME280;16367;48.736;9.218;2023-06-14T02:30:09;-23635.88;;;14.82;56.04
29385;BME280;16367;48.736;9.218;2023-06-14T02:32:13;-23639.00;;;14.92;55.95
29385;BME280;16367;48.736;9.218;2023-06-14T02:34:15;-23638.69;;;14.91;55.73
29385;BME280;16367;48.736;9.218;2023-06-14T02:36:19;-23637.75;;;14.88;55.84
29385;BME280;16367;48.736;9.218;2023-06-14T02:38:22;-23635.88;;;14.82;55.78
29385;BME280;16367;48.736;9.218;2023-06-14T02:40:25;-23633.97;;;14.76;56.30
29385;BME280;16367;48.736;9.218;2023-06-14T02:42:27;-23635.53;;;14.81;55.59
29385;BME280;16367;48.736;9.218;2023-06-14T02:44:30;-23632.38;;;14.71;56.06
29385;BME280;16367;48.736;9.218;2023-06-14T02:46:35;-23630.50;;;14.65;56.58
29385;BME280;16367;48.736;9.218;2023-06-14T02:48:37;-23630.50;;;14.65;56.90
29385;BME280;16367;48.736;9.218;2023-06-14T02:50:41;-23633.66;;;14.75;56.27
29385;BME280;16367;48.736;9.218;2023-06-14T02:52:44;-23633.03;;;14.73;56.56
29385;BME280;16367;48.736;9.218;2023-06-14T02:54:47;-23633.03;;;14.73;55.51
29385;BME280;16367;48.736;9.218;2023-06-14T02:56:50;-23635.22;;;14.80;55.95
29385;BME280;16367;48.736;9.218;2023-06-14T02:58:53;-23634.91;;;14.79;56.12
29385;BME280;16367;48.736;9.218;2023-06-14T03:00:56;-23630.66;;;14.65;56.68
29385;BME280;16367;48.736;9.218;2023-06-14T03:03:00;-23637.13;;;14.86;55.04
29385;BME280;16367;48.736;9.218;2023-06-14T03:05:04;-23637.28;;;14.86;55.74
29385;BME280;16367;48.736;9.218;2023-06-14T03:07:08;-23634.59;;;14.78;55.35
29385;BME280;16367;48.736;9.218;2023-06-14T03:09:11;-23638.06;;;14.89;54.53
29385;BME280;16367;48.736;9.218;2023-06-14T03:11:14;-23635.38;;;14.80;55.09
29385;BME280;16367;48.736;9.218;2023-06-14T03:13:18;-23638.06;;;14.89;55.12
29385;BME280;16367;48.736;9.218;2023-06-14T03:15:22;-23636.50;;;14.84;55.48
29385;BME280;16367;48.736;9.218;2023-06-14T03:17:26;-23637.44;;;14.87;54.97
29385;BME280;16367;48.736;9.218;2023-06-14T03:19:32;-23636.81;;;14.85;55.38
29385;BME280;16367;48.736;9.218;2023-06-14T03:21:35;-23635.38;;;14.80;56.19
29385;BME280;16367;48.736;9.218;2023-06-14T03:23:38;-23632.06;;;14.70;56.27
29385;BME280;16367;48.736;9.218;2023-06-14T03:25:41;-23634.28;;;14.77;55.97
29385;BME280;16367;48.736;9.218;2023-06-14T03:27:43;-23634.44;;;14.77;57.20
29385;BME280;16367;48.736;9.218;2023-06-14T03:29:46;-23633.34;;;14.74;55.92
29385;BME280;16367;48.736;9.218;2023-06-14T03:31:59;-23632.06;;;14.70;55.89
29385;BME280;16367;48.736;9.218;2023-06-14T03:34:02;-23627.34;;;14.55;57.69
29385;BME280;16367;48.736;9.218;2023-06-14T03:36:07;-23628.91;;;14.60;57.15
29385;BME280;16367;48.736;9.218;2023-06-14T03:38:10;-23628.28;;;14.58;57.09
29385;BME280;16367;48.736;9.218;2023-06-14T03:40:15;-23627.97;;;14.57;57.33
29385;BME280;16367;48.736;9.218;2023-06-14T03:42:18;-23628.91;;;14.60;56.74
29385;BME280;16367;48.736;9.218;2023-06-14T03:44:21;-23629.06;;;14.60;56.74
29385;BME280;16367;48.736;9.218;2023-06-14T03:46:24;-23630.81;;;14.66;56.83
29385;BME280;16367;48.736;9.218;2023-06-14T03:48:26;-23631.44;;;14.68;56.98
29385;BME280;16367;48.736;9.218;2023-06-14T03:50:29;-23632.56;;;14.71;56.13
29385;BME280;16367;48.736;9.218;2023-06-14T03:52:35;-23634.59;;;14.78;57.02
29385;BME280;16367;48.736;9.218;2023-06-14T03:54:38;-23633.66;;;14.75;56.52
29385;BME280;16367;48.736;9.218;2023-06-14T03:56:44;-23635.88;;;14.82;57.01
29385;BME280;16367;48.736;9.218;2023-06-14T03:58:47;-23635.06;;;14.79;56.59
29385;BME280;16367;48.736;9.218;2023-06-14T04:00:50;-23631.28;;;14.67;57.27
29385;BME280;16367;48.736;9.218;2023-06-14T04:02:53;-23631.44;;;14.68;57.32
29385;BME280;16367;48.736;9.218;2023-06-14T04:04:56;-23630.50;;;14.65;57.69
29385;BME280;16367;48.736;9.218;2023-06-14T04:07:00;-23635.69;;;14.81;57.29
29385;BME280;16367;48.736;9.218;2023-06-14T04:09:06;-23641.53;;;15.00;58.09
29385;BME280;16367;48.736;9.218;2023-06-14T04:11:08;-23647.22;;;15.18;57.20
29385;BME280;16367;48.736;9.218;2023-06-14T04:13:11;-23665.19;;;15.76;55.96
29385;BME280;16367;48.736;9.218;2023-06-14T04:15:14;-23684.75;;;16.38;55.22
29385;BME280;16367;48.736;9.218;2023-06-14T04:17:22;-23689.78;;;16.54;53.94
29385;BME280;16367;48.736;9.218;2023-06-14T04:19:25;-23701.75;;;16.92;51.72
29385;BME280;16367;48.736;9.218;2023-06-14T04:21:28;-23704.44;;;17.01;51.32
29385;BME280;16367;48.736;9.218;2023-06-14T04:23:31;-23697.97;;;16.80;52.23
29385;BME280;16367;48.736;9.218;2023-06-14T04:25:35;-23704.13;;;17.00;52.21
29385;BME280;16367;48.736;9.218;2023-06-14T04:27:38;-23716.88;;;17.41;51.45
29385;BME280;16367;48.736;9.218;2023-06-14T04:29:41;-23738.91;;;18.11;50.76
29385;BME280;16367;48.736;9.218;2023-06-14T04:31:46;-23737.31;;;18.06;49.74
29385;BME280;16367;48.736;9.218;2023-06-14T04:33:49;-23741.09;;;18.18;49.98
29385;BME280;16367;48.736;9.218;2023-06-14T04:35:55;-23754.63;;;18.62;48.56
29385;BME280;16367;48.736;9.218;2023-06-14T04:37:58;-23732.28;;;17.90;49.89
29385;BME280;16367;48.736;9.218;2023-06-14T04:40:01;-23742.81;;;18.24;49.39
29385;BME280;16367;48.736;9.218;2023-06-14T04:42:08;-23739.22;;;18.12;49.28
29385;BME280;16367;48.736;9.218;2023-06-14T04:44:13;-23734.50;;;17.97;49.43
29385;BME280;16367;48.736;9.218;2023-06-14T04:46:18;-23751.47;;;18.51;48.90
29385;BME280;16367;48.736;9.218;2023-06-14T04:48:22;-23735.91;;;18.02;49.57
29385;BME280;16367;48.736;9.218;2023-06-14T04:50:26;-23773.16;;;19.21;47.08
29385;BME280;16367;48.736;9.218;2023-06-14T04:52:31;-23770.50;;;19.12;48.44
29385;BME280;16367;48.736;9.218;2023-06-14T04:54:34;-23776.63;;;19.32;47.29
29385;BME280;16367;48.736;9.218;2023-06-14T04:56:47;-23775.03;;;19.27;47.24
29385;BME280;16367;48.736;9.218;2023-06-14T04:58:52;-23747.06;;;18.37;48.92
29385;BME280;16367;48.736;9.218;2023-06-14T05:00:55;-23739.06;;;18.12;49.09
29385;BME280;16367;48.736;9.218;2023-06-14T05:03:00;-23754.94;;;18.63;49.23
29385;BME280;16367;48.736;9.218;2023-06-14T05:05:05;-23762.47;;;18.87;47.94
29385;BME280;16367;48.736;9.218;2023-06-14T05:07:09;-23752.72;;;18.55;48.17
29385;BME280;16367;48.736;9.218;2023-06-14T05:09:13;-23741.88;;;18.21;48.77
29385;BME280;16367;48.736;9.218;2023-06-14T05:11:16;-23736.69;;;18.04;49.51
29385;BME280;16367;48.736;9.218;2023-06-14T05:13:19;-23759.81;;;18.78;48.64
29385;BME280;16367;48.736;9.218;2023-06-14T05:15:25;-23755.72;;;18.65;48.96
29385;BME280;16367;48.736;9.218;2023-06-14T05:17:28;-23792.63;;;19.83;47.02
29385;BME280;16367;48.736;9.218;2023-06-14T05:19:31;-23784.00;;;19.56;47.99
29385;BME280;16367;48.736;9.218;2023-06-14T05:21:34;-23754.78;;;18.62;48.82
29385;BME280;16367;48.736;9.218;2023-06-14T05:23:43;-23791.06;;;19.78;48.41
29385;BME280;16367;48.736;9.218;2023-06-14T05:25:47;-23797.19;;;19.98;46.14
29385;BME280;16367;48.736;9.218;2023-06-14T05:27:49;-23790.91;;;19.78;46.67
29385;BME280;16367;48.736;9.218;2023-06-14T05:29:52;-23799.22;;;20.04;45.72
29385;BME280;16367;48.736;9.218;2023-06-14T05:31:58;-23793.72;;;19.87;45.73
29385;BME280;16367;48.736;9.218;2023-06-14T05:34:01;-23798.28;;;20.01;46.45
29385;BME280;16367;48.736;9.218;2023-06-14T05:36:04;-23791.53;;;19.80;46.47
29385;BME280;16367;48.736;9.218;2023-06-14T05:38:09;-23779.13;;;19.40;47.04
29385;BME280;16367;48.736;9.218;2023-06-14T05:40:12;-23788.88;;;19.71;46.68
29385;BME280;16367;48.736;9.218;2023-06-14T05:42:15;-23784.78;;;19.58;47.39
29385;BME280;16367;48.736;9.218;2023-06-14T05:44:18;-23772.06;;;19.17;48.12
29385;BME280;16367;48.736;9.218;2023-06-14T05:46:20;-23781.97;;;19.49;47.26
29385;BME280;16367;48.736;9.218;2023-06-14T05:48:28;-23770.00;;;19.11;48.04
29385;BME280;16367;48.736;9.218;2023-06-14T05:50:33;-23768.28;;;19.05;48.84
29385;BME280;16367;48.736;9.218;2023-06-14T05:52:36;-23770.00;;;19.11;49.04
29385;BME280;16367;48.736;9.218;2023-06-14T05:54:39;-23756.19;;;18.67;50.03
29385;BME280;16367;48.736;9.218;2023-06-14T05:56:42;-23767.81;;;19.04;48.48
29385;BME280;16367;48.736;9.218;2023-06-14T05:58:46;-23761.84;;;18.85;49.18
29385;BME280;16367;48.736;9.218;2023-06-14T06:00:49;-23779.91;;;19.43;47.29
29385;BME280;16367;48.736;9.218;2023-06-14T06:02:52;-23773.16;;;19.21;47.12
29385;BME280;16367;48.736;9.218;2023-06-14T06:04:56;-23776.94;;;19.33;46.26
29385;BME280;16367;48.736;9.218;2023-06-14T06:06:59;-23779.13;;;19.40;46.25
29385;BME280;16367;48.736;9.218;2023-06-14T06:09:02;-23780.38;;;19.44;45.07
29385;BME280;16367;48.736;9.218;2023-06-14T06:11:06;-23783.69;;;19.55;45.65
29385;BME280;16367;48.736;9.218;2023-06-14T06:13:09;-23777.09;;;19.33;46.00
29385;BME280;16367;48.736;9.218;2023-06-14T06:15:12;-23788.09;;;19.69;45.94
29385;BME280;16367;48.736;9.218;2023-06-14T06:17:16;-23790.13;;;19.75;45.01
29385;BME280;16367;48.736;9.218;2023-06-14T06:19:19;-23786.50;;;19.64;46.18
29385;BME280;16367;48.736;9.218;2023-06-14T06:21:23;-23807.69;;;20.32;45.55
29385;BME280;16367;48.736;9.218;2023-06-14T06:23:25;-23794.19;;;19.88;46.56
29385;BME280;16367;48.736;9.218;2023-06-14T06:25:28;-23787.28;;;19.66;47.42
29385;BME280;16367;48.736;9.218;2023-06-14T06:27:33;-23789.19;;;19.72;46.38
29385;BME280;16367;48.736;9.218;2023-06-14T06:29:37;-23794.03;;;19.88;46.07
29385;BME280;16367;48.736;9.218;2023-06-14T06:31:40;-23792.31;;;19.82;46.86
29385;BME280;16367;48.736;9.218;2023-06-14T06:33:43;-23798.28;;;20.01;45.39
29385;BME280;16367;48.736;9.218;2023-06-14T06:35:45;-23792.63;;;19.83;45.40
29385;BME280;16367;48.736;9.218;2023-06-14T06:37:50;-23777.41;;;19.35;46.36
29385;BME280;16367;48.736;9.218;2023-06-14T06:39:53;-23796.41;;;19.95;45.47
29385;BME280;16367;48.736;9.218;2023-06-14T06:41:56;-23791.06;;;19.78;46.26
29385;BME280;16367;48.736;9.218;2023-06-14T06:43:58;-23788.25;;;19.69;46.57
29385;BME280;16367;48.736;9.218;2023-06-14T06:46:01;-23802.84;;;20.16;45.41
29385;BME280;16367;48.736;9.218;2023-06-14T06:48:05;-23784.47;;;19.57;45.11
29385;BME280;16367;48.736;9.218;2023-06-14T06:50:08;-23809.28;;;20.37;44.40
29385;BME280;16367;48.736;9.218;2023-06-14T06:52:10;-23807.69;;;20.32;44.52
29385;BME280;16367;48.736;9.218;2023-06-14T06:54:15;-23785.72;;;19.61;45.83
29385;BME280;16367;48.736;9.218;2023-06-14T06:56:17;-23804.25;;;20.21;44.91
29385;BME280;16367;48.736;9.218;2023-06-14T06:58:21;-23800.94;;;20.10;45.05
29385;BME280;16367;48.736;9.218;2023-06-14T07:00:23;-23801.91;;;20.13;44.84
29385;BME280;16367;48.736;9.218;2023-06-14T07:02:29;-23825.13;;;20.88;44.65
29385;BME280;16367;48.736;9.218;2023-06-14T07:04:32;-23839.06;;;21.32;44.43
29385;BME280;16367;48.736;9.218;2023-06-14T07:06:35;-23844.72;;;21.50;42.87
29385;BME280;16367;48.736;9.218;2023-06-14T07:08:38;-23837.19;;;21.26;43.38
29385;BME280;16367;48.736;9.218;2023-06-14T07:10:43;-23843.13;;;21.45;42.79
29385;BME280;16367;48.736;9.218;2023-06-14T07:12:45;-23830.59;;;21.05;43.86
29385;BME280;16367;48.736;9.218;2023-06-14T07:14:48;-23829.81;;;21.03;43.38
29385;BME280;16367;48.736;9.218;2023-06-14T07:16:51;-23848.78;;;21.64;43.27
29385;BME280;16367;48.736;9.218;2023-06-14T07:18:54;-23853.78;;;21.80;42.58
29385;BME280;16367;48.736;9.218;2023-06-14T07:20:57;-23864.75;;;22.15;41.78
29385;BME280;16367;48.736;9.218;2023-06-14T07:22:59;-23837.34;;;21.27;44.06
29385;BME280;16367;48.736;9.218;2023-06-14T07:25:02;-23852.22;;;21.75;43.19
29385;BME280;16367;48.736;9.218;2023-06-14T07:27:07;-23847.06;;;21.58;43.41
29385;BME280;16367;48.736;9.218;2023-06-14T07:29:09;-23856.63;;;21.89;43.32
29385;BME280;16367;48.736;9.218;2023-06-14T07:31:12;-23876.66;;;22.53;41.16
29385;BME280;16367;48.736;9.218;2023-06-14T07:33:15;-23831.38;;;21.08;43.95
29385;BME280;16367;48.736;9.218;2023-06-14T07:35:18;-23862.09;;;22.06;43.13
29385;BME280;16367;48.736;9.218;2023-06-14T07:39:23;-23874.31;;;22.46;42.39
29385;BME280;16367;48.736;9.218;2023-06-14T07:41:26;-23861.00;;;22.03;43.00
29385;BME280;16367;48.736;9.218;2023-06-14T07:43:30;-23881.19;;;22.68;41.74
29385;BME280;16367;48.736;9.218;2023-06-14T07:45:33;-23896.22;;;23.16;40.13
29385;BME280;16367;48.736;9.218;2023-06-14T07:47:36;-23940.75;;;24.60;38.16
29385;BME280;16367;48.736;9.218;2023-06-14T07:49:39;-23882.91;;;22.73;41.19
29385;BME280;16367;48.736;9.218;2023-06-14T07:51:42;-23860.22;;;22.00;41.89
29385;BME280;16367;48.736;9.218;2023-06-14T07:53:45;-23849.72;;;21.67;43.27
29385;BME280;16367;48.736;9.218;2023-06-14T07:55:48;-23889.66;;;22.95;41.94
29385;BME280;16367;48.736;9.218;2023-06-14T07:57:54;-23895.44;;;23.14;40.21
29385;BME280;16367;48.736;9.218;2023-06-14T07:59:58;-23873.06;;;22.42;41.55
29385;BME280;16367;48.736;9.218;2023-06-14T08:02:01;-23908.88;;;23.57;39.93
29385;BME280;16367;48.736;9.218;2023-06-14T08:04:04;-23908.41;;;23.55;40.61
29385;BME280;16367;48.736;9.218;2023-06-14T08:06:07;-23891.06;;;22.99;41.83
29385;BME280;16367;48.736;9.218;2023-06-14T08:08:10;-23895.59;;;23.14;41.26
29385;BME280;16367;48.736;9.218;2023-06-14T08:10:13;-23921.38;;;23.97;39.13
29385;BME280;16367;48.736;9.218;2023-06-14T08:12:17;-23911.06;;;23.64;39.34
29385;BME280;16367;48.736;9.218;2023-06-14T08:14:19;-23892.63;;;23.05;41.91
29385;BME280;16367;48.736;9.218;2023-06-14T08:16:24;-23956.06;;;25.09;39.11
29385;BME280;16367;48.736;9.218;2023-06-14T08:18:26;-23952.78;;;24.98;39.47
29385;BME280;16367;48.736;9.218;2023-06-14T08:20:29;-23944.50;;;24.72;39.15
29385;BME280;16367;48.736;9.218;2023-06-14T08:22:33;-23915.44;;;23.78;39.89
29385;BME280;16367;48.736;9.218;2023-06-14T08:24:37;-23920.44;;;23.94;40.36
29385;BME280;16367;48.736;9.218;2023-06-14T08:26:40;-23881.34;;;22.68;41.59
29385;BME280;16367;48.736;9.218;2023-06-14T08:28:43;-23932.94;;;24.34;39.17
29385;BME280;16367;48.736;9.218;2023-06-14T08:30:47;-23937.47;;;24.49;39.63
29385;BME280;16367;48.736;9.218;2023-06-14T08:32:51;-23882.59;;;22.72;41.70
29385;BME280;16367;48.736;9.218;2023-06-14T08:35:15;-23910.59;;;23.62;40.90
29385;BME280;16367;48.736;9.218;2023-06-14T08:37:17;-23917.47;;;23.85;40.59
29385;BME280;16367;48.736;9.218;2023-06-14T08:39:20;-23893.56;;;23.08;42.26
29385;BME280;16367;48.736;9.218;2023-06-14T08:41:23;-23903.72;;;23.40;41.42
29385;BME280;16367;48.736;9.218;2023-06-14T08:43:27;-23910.91;;;23.63;41.89
29385;BME280;16367;48.736;9.218;2023-06-14T08:45:29;-23948.88;;;24.86;39.27
29385;BME280;16367;48.736;9.218;2023-06-14T08:47:33;-23978.84;;;25.82;37.54
29385;BME280;16367;48.736;9.218;2023-06-14T08:49:46;-23956.38;;;25.10;40.34
29385;BME280;16367;48.736;9.218;2023-06-14T08:51:54;-23937.31;;;24.49;39.29
29385;BME280;16367;48.736;9.218;2023-06-14T08:53:59;-23933.25;;;24.35;40.35
29385;BME280;16367;48.736;9.218;2023-06-14T08:56:03;-23931.84;;;24.31;40.14
29385;BME280;16367;48.736;9.218;2023-06-14T08:58:07;-23969.31;;;25.52;38.01
29385;BME280;16367;48.736;9.218;2023-06-14T09:00:12;-23978.22;;;25.80;38.14
29385;BME280;16367;48.736;9.218;2023-06-14T09:02:15;-23952.63;;;24.98;39.57
29385;BME280;16367;48.736;9.218;2023-06-14T09:04:19;-23979.78;;;25.85;38.72
29385;BME280;16367;48.736;9.218;2023-06-14T09:06:24;-23966.19;;;25.42;38.26
29385;BME280;16367;48.736;9.218;2023-06-14T09:08:29;-23960.44;;;25.23;39.27
29385;BME280;16367;48.736;9.218;2023-06-14T09:10:33;-24005.00;;;26.67;36.36
29385;BME280;16367;48.736;9.218;2023-06-14T09:12:36;-24013.75;;;26.95;35.76
29385;BME280;16367;48.736;9.218;2023-06-14T09:14:40;-23952.31;;;24.97;37.35
29385;BME280;16367;48.736;9.218;2023-06-14T09:16:44;-23989.13;;;26.16;36.15
29385;BME280;16367;48.736;9.218;2023-06-14T09:18:47;-23954.19;;;25.03;37.23
29385;BME280;16367;48.736;9.218;2023-06-14T09:20:50;-23974.47;;;25.68;36.90
29385;BME280;16367;48.736;9.218;2023-06-14T09:22:54;-23967.91;;;25.47;37.33
29385;BME280;16367;48.736;9.218;2023-06-14T09:24:57;-24007.50;;;26.75;36.03
29385;BME280;16367;48.736;9.218;2023-06-14T09:27:00;-24016.38;;;27.04;35.10
29385;BME280;16367;48.736;9.218;2023-06-14T09:29:05;-23934.34;;;24.39;39.28
29385;BME280;16367;48.736;9.218;2023-06-14T09:31:08;-23979.44;;;25.84;36.63
29385;BME280;16367;48.736;9.218;2023-06-14T09:33:16;-23967.91;;;25.47;37.68
29385;BME280;16367;48.736;9.218;2023-06-14T09:35:20;-23967.59;;;25.46;36.80
29385;BME280;16367;48.736;9.218;2023-06-14T09:37:29;-23930.13;;;24.25;38.70
29385;BME280;16367;48.736;9.218;2023-06-14T09:39:34;-24030.56;;;27.50;34.79
29385;BME280;16367;48.736;9.218;2023-06-14T09:41:38;-23992.25;;;26.26;35.90
29385;BME280;16367;48.736;9.218;2023-06-14T09:43:41;-23974.16;;;25.67;36.72
29385;BME280;16367;48.736;9.218;2023-06-14T09:45:45;-23991.94;;;26.25;36.83
29385;BME280;16367;48.736;9.218;2023-06-14T09:47:51;-23977.59;;;25.78;36.80
29385;BME280;16367;48.736;9.218;2023-06-14T09:50:08;-23964.78;;;25.37;36.32
29385;BME280;16367;48.736;9.218;2023-06-14T09:52:14;-23961.66;;;25.27;37.00
29385;BME280;16367;48.736;9.218;2023-06-14T09:54:19;-23971.50;;;25.59;35.55
29385;BME280;16367;48.736;9.218;2023-06-14T09:56:27;-23906.69;;;23.50;37.57
29385;BME280;16367;48.736;9.218;2023-06-14T09:58:32;-23964.16;;;25.35;34.67
29385;BME280;16367;48.736;9.218;2023-06-14T10:00:40;-24012.97;;;26.93;32.44
29385;BME280;16367;48.736;9.218;2023-06-14T10:02:48;-23966.97;;;25.44;32.57
29385;BME280;16367;48.736;9.218;2023-06-14T10:04:58;-23976.03;;;25.73;33.15
29385;BME280;16367;48.736;9.218;2023-06-14T10:07:08;-23980.69;;;25.88;30.85
29385;BME280;16367;48.736;9.218;2023-06-14T10:09:12;-23985.06;;;26.03;31.22
29385;BME280;16367;48.736;9.218;2023-06-14T10:11:17;-23995.97;;;26.38;32.00
29385;BME280;16367;48.736;9.218;2023-06-14T10:13:21;-24052.63;;;28.21;29.12
29385;BME280;16367;48.736;9.218;2023-06-14T10:15:35;-24009.06;;;26.80;31.88
29385;BME280;16367;48.736;9.218;2023-06-14T10:17:44;-23951.22;;;24.93;35.47
29385;BME280;16367;48.736;9.218;2023-06-14T10:19:55;-23957.00;;;25.12;35.22
29385;BME280;16367;48.736;9.218;2023-06-14T10:22:04;-23949.19;;;24.87;35.61
29385;BME280;16367;48.736;9.218;2023-06-14T10:24:11;-23958.25;;;25.16;35.01
29385;BME280;16367;48.736;9.218;2023-06-14T10:26:22;-23943.88;;;24.70;35.30
29385;BME280;16367;48.736;9.218;2023-06-14T10:28:27;-23920.28;;;23.94;35.67
29385;BME280;16367;48.736;9.218;2023-06-14T10:30:32;-23979.44;;;25.84;34.60
29385;BME280;16367;48.736;9.218;2023-06-14T10:32:34;-23962.31;;;25.29;35.14
29385;BME280;16367;48.736;9.218;2023-06-14T10:34:38;-23953.09;;;24.99;35.89
29385;BME280;16367;48.736;9.218;2023-06-14T10:36:42;-23960.13;;;25.22;34.43
29385;BME280;16367;48.736;9.218;2023-06-14T10:38:45;-23974.78;;;25.69;34.22
29385;BME280;16367;48.736;9.218;2023-06-14T10:40:52;-23956.38;;;25.10;34.82
29385;BME280;16367;48.736;9.218;2023-06-14T10:42:55;-23935.13;;;24.41;36.08
29385;BME280;16367;48.736;9.218;2023-06-14T10:45:00;-23969.94;;;25.54;34.57
29385;BME280;16367;48.736;9.218;2023-06-14T10:47:06;-23963.84;;;25.34;35.69
29385;BME280;16367;48.736;9.218;2023-06-14T10:49:10;-23956.69;;;25.11;35.61
29385;BME280;16367;48.736;9.218;2023-06-14T10:51:18;-23963.84;;;25.34;35.23